Time;durP1;ratioP1;P1;durP2;ratioP2;P2;SDS_P1;SDS_P2;PMS_P1;PMS_P2;Temp;Humidity;BMP_temperature;BMP_pressure;BME280_temperature;BME280_humidity;BME280_pressure;Samples;Min_cycle;Max_cycle;Signal;HPM_P1;HPM_P2
2022/10/07 00:00:25;;;;;;;;;;;14.60;99.90;;;;;;1035150;28;19992;-70
2022/10/07 00:00:56;;;;;;;;;;;14.60;99.90;;;;;;1035038;28;19906;-71
2022/10/07 00:01:27;;;;;;;;;;;14.60;99.90;;;;;;1035175;28;19913;-72
2022/10/07 00:01:57;;;;;;;;;;;14.60;99.90;;;;;;1035296;28;19909;-73
2022/10/07 00:02:28;;;;;;;;;;;14.60;99.90;;;;;;1035420;28;19948;-72
2022/10/07 00:02:58;;;;;;;;;;;14.50;99.90;;;;;;1035497;28;20009;-71
2022/10/07 00:03:29;;;;;;;;;;;14.50;99.90;;;;;;1034957;28;19987;-72
2022/10/07 00:04:00;;;;;;;;;;;14.50;99.90;;;;;;1035584;28;19917;-72
2022/10/07 00:04:30;;;;;;;;;;;14.50;99.90;;;;;;1034932;28;20266;-73
2022/10/07 00:05:01;;;;;;;;;;;14.60;99.90;;;;;;1034723;28;19909;-72
2022/10/07 00:05:31;;;;;;;;;;;14.60;99.90;;;;;;1034937;28;20514;-73
2022/10/07 00:06:03;;;;;;;;;;;14.60;99.90;;;;;;1035163;28;19909;-72
2022/10/07 00:06:34;;;;;;;;;;;14.60;99.90;;;;;;1035102;28;20345;-73
2022/10/07 00:07:04;;;;;;;;;;;14.60;99.90;;;;;;1035519;28;20287;-72
2022/10/07 00:07:35;;;;;;;;;;;14.60;99.90;;;;;;1035284;28;19920;-72
2022/10/07 00:08:05;;;;;;;;;;;14.60;99.90;;;;;;1035109;28;20438;-73
2022/10/07 00:08:36;;;;;;;;;;;14.60;99.90;;;;;;1035205;28;20095;-72
2022/10/07 00:09:07;;;;;;;;;;;14.60;99.90;;;;;;1035054;28;19944;-72
2022/10/07 00:09:37;;;;;;;;;;;14.60;99.90;;;;;;1030931;28;19916;-72
2022/10/07 00:10:08;;;;;;;;;;;14.60;99.90;;;;;;1034985;28;19988;-72
2022/10/07 00:10:40;;;;;;;;;;;14.60;99.90;;;;;;1034902;28;19906;-71
2022/10/07 00:11:15;;;;;;;;;;;14.60;99.90;;;;;;1035352;28;19960;-71
2022/10/07 00:11:45;;;;;;;;;;;14.60;99.90;;;;;;1035281;28;19916;-70
2022/10/07 00:12:16;;;;;;;;;;;14.60;99.90;;;;;;1035867;28;19912;-72
2022/10/07 00:12:47;;;;;;;;;;;14.60;99.90;;;;;;1035510;28;20367;-72
2022/10/07 00:13:17;;;;;;;;;;;14.60;99.90;;;;;;1035074;28;20356;-73
2022/10/07 00:13:48;;;;;;;;;;;14.60;99.90;;;;;;1035283;28;20256;-72
2022/10/07 00:14:19;;;;;;;;;;;14.60;99.90;;;;;;1035468;28;19902;-72
2022/10/07 00:14:49;;;;;;;;;;;14.60;99.90;;;;;;1035053;28;19905;-72
2022/10/07 00:15:20;;;;;;;;;;;14.60;99.90;;;;;;1035437;28;19905;-73
2022/10/07 00:15:50;;;;;;;;;;;14.60;99.90;;;;;;1035023;28;19905;-72
2022/10/07 00:16:25;;;;;;;;;;;14.60;99.90;;;;;;1035942;28;20297;-72
2022/10/07 00:16:55;;;;;;;;;;;14.70;99.90;;;;;;1032620;28;20368;-72
2022/10/07 00:17:25;;;;;;;;;;;14.60;99.90;;;;;;1035788;28;19917;-71
2022/10/07 00:17:56;;;;;;;;;;;14.60;99.90;;;;;;1035555;28;19913;-72
2022/10/07 00:18:26;;;;;;;;;;;14.60;99.90;;;;;;1035796;28;19909;-72
2022/10/07 00:18:58;;;;;;;;;;;14.70;99.90;;;;;;1035746;28;20285;-72
2022/10/07 00:19:28;;;;;;;;;;;14.60;99.90;;;;;;1035638;28;19913;-72
2022/10/07 00:19:59;;;;;;;;;;;14.60;99.90;;;;;;1035163;28;19913;-71
2022/10/07 00:20:29;;;;;;;;;;;14.60;99.90;;;;;;1035517;28;19906;-72
2022/10/07 00:21:04;;;;;;;;;;;14.60;99.90;;;;;;1034960;28;19905;-71
2022/10/07 00:21:35;;;;;;;;;;;14.60;99.90;;;;;;1035704;28;19905;-73
2022/10/07 00:22:05;;;;;;;;;;;14.60;99.90;;;;;;1035217;28;19916;-70
2022/10/07 00:22:38;;;;;;;;;;;14.60;99.90;;;;;;1035285;28;19971;-71
2022/10/07 00:23:09;;;;;;;;;;;14.60;99.90;;;;;;1035330;28;19905;-72
2022/10/07 00:23:43;;;;;;;;;;;14.60;99.90;;;;;;1035282;28;19909;-72
2022/10/07 00:24:14;;;;;;;;;;;14.60;99.90;;;;;;1035784;28;20588;-72
2022/10/07 00:24:45;;;;;;;;;;;14.60;99.90;;;;;;1035782;28;20367;-73
2022/10/07 00:25:15;;;;;;;;;;;14.60;99.90;;;;;;1035453;28;20352;-71
2022/10/07 00:25:46;;;;;;;;;;;14.60;99.90;;;;;;1035253;28;19921;-71
2022/10/07 00:26:18;;;;;;;;;;;14.60;99.90;;;;;;1035767;28;19913;-72
2022/10/07 00:26:48;;;;;;;;;;;14.60;99.90;;;;;;1035868;28;19959;-72
2022/10/07 00:27:19;;;;;;;;;;;14.60;99.90;;;;;;1035377;28;19913;-72
2022/10/07 00:27:49;;;;;;;;;;;14.60;99.90;;;;;;1035231;28;19909;-73
2022/10/07 00:28:22;;;;;;;;;;;14.60;99.90;;;;;;1035941;28;19967;-72
2022/10/07 00:28:53;;;;;;;;;;;14.60;99.90;;;;;;1034962;28;19916;-72
2022/10/07 00:29:23;;;;;;;;;;;14.50;99.90;;;;;;1035560;28;19912;-72
2022/10/07 00:29:54;;;;;;;;;;;14.50;99.90;;;;;;1030976;28;20486;-72
2022/10/07 00:30:24;;;;;;;;;;;14.50;99.90;;;;;;1033694;28;20002;-72
2022/10/07 00:30:55;;;;;;;;;;;14.60;99.90;;;;;;1035138;28;19909;-72
2022/10/07 00:31:27;;;;;;;;;;;14.50;99.90;;;;;;1035325;28;21394;-71
2022/10/07 00:31:58;;;;;;;;;;;14.50;99.90;;;;;;1035805;28;19906;-72
2022/10/07 00:32:28;;;;;;;;;;;14.50;99.90;;;;;;1035716;28;19913;-73
2022/10/07 00:32:59;;;;;;;;;;;14.50;99.90;;;;;;1034837;28;19928;-71
2022/10/07 00:33:30;;;;;;;;;;;14.50;99.90;;;;;;1035112;28;20665;-73
2022/10/07 00:34:01;;;;;;;;;;;14.50;99.90;;;;;;1035103;28;20547;-71
2022/10/07 00:34:32;;;;;;;;;;;14.50;99.90;;;;;;1035372;28;20299;-71
2022/10/07 00:35:02;;;;;;;;;;;14.50;99.90;;;;;;1035185;28;19988;-72
2022/10/07 00:35:34;;;;;;;;;;;14.50;99.90;;;;;;1035458;28;20020;-71
2022/10/07 00:36:08;;;;;;;;;;;14.50;99.90;;;;;;1035481;28;19905;-72
2022/10/07 00:36:38;;;;;;;;;;;14.50;99.90;;;;;;1035544;28;19928;-72
2022/10/07 00:37:09;;;;;;;;;;;14.40;99.90;;;;;;1035657;28;19960;-72
2022/10/07 00:37:41;;;;;;;;;;;14.40;99.90;;;;;;1035638;28;19984;-71
2022/10/07 00:38:12;;;;;;;;;;;14.40;99.90;;;;;;1034596;28;19906;-71
2022/10/07 00:38:42;;;;;;;;;;;14.40;99.90;;;;;;1035953;28;19987;-71
2022/10/07 00:39:13;;;;;;;;;;;14.40;99.90;;;;;;1035066;28;19932;-72
2022/10/07 00:39:44;;;;;;;;;;;14.40;99.90;;;;;;1035376;28;19913;-72
2022/10/07 00:40:15;;;;;;;;;;;14.40;99.90;;;;;;1035159;28;19909;-72
2022/10/07 00:40:45;;;;;;;;;;;14.50;99.90;;;;;;1035138;28;19921;-72
2022/10/07 00:41:17;;;;;;;;;;;14.40;99.90;;;;;;1035614;28;19952;-73
2022/10/07 00:41:49;;;;;;;;;;;14.40;99.90;;;;;;1035438;28;19909;-72
2022/10/07 00:42:20;;;;;;;;;;;14.40;99.90;;;;;;1035648;28;20328;-72
2022/10/07 00:42:50;;;;;;;;;;;14.40;99.90;;;;;;1035343;28;20521;-71
2022/10/07 00:43:23;;;;;;;;;;;14.40;99.90;;;;;;1035627;28;19991;-72
2022/10/07 00:43:54;;;;;;;;;;;14.40;99.90;;;;;;1035427;28;19906;-71
2022/10/07 00:44:27;;;;;;;;;;;14.40;99.90;;;;;;1035810;28;19992;-72
2022/10/07 00:44:57;;;;;;;;;;;14.40;99.90;;;;;;1034952;28;20011;-72
2022/10/07 00:45:28;;;;;;;;;;;14.40;99.90;;;;;;1035205;28;20039;-72
2022/10/07 00:46:02;;;;;;;;;;;14.40;99.90;;;;;;1035059;28;19909;-72
2022/10/07 00:46:34;;;;;;;;;;;14.40;99.90;;;;;;1035155;28;19956;-72
2022/10/07 00:47:11;;;;;;;;;;;14.40;99.90;;;;;;1035673;28;20348;-72
2022/10/07 00:47:45;;;;;;;;;;;14.40;99.90;;;;;;1035850;28;19905;-72
2022/10/07 00:48:19;;;;;;;;;;;14.40;99.90;;;;;;1033460;28;20272;-72
2022/10/07 00:48:49;;;;;;;;;;;14.40;99.90;;;;;;1035700;28;20394;-72
2022/10/07 00:49:20;;;;;;;;;;;14.40;99.90;;;;;;1035796;28;20559;-72
2022/10/07 00:49:53;;;;;;;;;;;14.40;99.90;;;;;;1033976;28;22212;-72
2022/10/07 00:50:26;;;;;;;;;;;14.40;99.90;;;;;;1031226;28;20391;-72
2022/10/07 00:50:58;;;;;;;;;;;14.40;99.90;;;;;;1031007;28;19996;-72
2022/10/07 00:51:29;;;;;;;;;;;14.30;99.90;;;;;;1031958;28;19981;-72
2022/10/07 00:51:59;;;;;;;;;;;14.40;99.90;;;;;;1035173;28;19916;-73
2022/10/07 00:52:32;;;;;;;;;;;14.30;99.90;;;;;;1035694;28;19916;-72
2022/10/07 00:53:03;;;;;;;;;;;14.30;99.90;;;;;;1035621;28;19916;-72
2022/10/07 00:53:34;;;;;;;;;;;14.30;99.90;;;;;;1035347;28;19920;-72
2022/10/07 00:54:12;;;;;;;;;;;14.30;99.90;;;;;;1035404;28;19913;-72
2022/10/07 00:54:43;;;;;;;;;;;14.30;99.90;;;;;;1035015;28;19909;-72
2022/10/07 00:55:15;;;;;;;;;;;14.30;99.90;;;;;;1035447;28;19960;-72
2022/10/07 00:55:46;;;;;;;;;;;14.30;99.90;;;;;;1032644;28;19913;-71
2022/10/07 00:56:17;;;;;;;;;;;14.40;99.90;;;;;;1033122;28;19917;-72
2022/10/07 00:56:48;;;;;;;;;;;14.40;99.90;;;;;;1035032;28;19975;-72
2022/10/07 00:57:23;;;;;;;;;;;14.40;99.90;;;;;;1031708;28;19910;-71
2022/10/07 00:57:56;;;;;;;;;;;14.40;99.90;;;;;;1037694;28;19949;-72
2022/10/07 00:58:27;;;;;;;;;;;14.40;99.90;;;;;;1038621;28;19949;-72
2022/10/07 00:58:58;;;;;;;;;;;14.40;99.90;;;;;;1034686;28;19909;-71
2022/10/07 00:59:28;;;;;;;;;;;14.50;99.90;;;;;;1035374;28;19905;-72
2022/10/07 01:00:00;;;;;;;;;;;14.50;99.90;;;;;;1035414;28;19975;-71
2022/10/07 01:00:30;;;;;;;;;;;14.50;99.90;;;;;;1035813;28;19909;-71
2022/10/07 01:01:01;;;;;;;;;;;14.50;99.90;;;;;;1035534;28;20008;-71
2022/10/07 01:01:32;;;;;;;;;;;14.50;99.90;;;;;;1035322;28;20004;-72
2022/10/07 01:02:03;;;;;;;;;;;14.50;99.90;;;;;;1035167;28;19916;-74
2022/10/07 01:02:33;;;;;;;;;;;14.50;99.90;;;;;;1035339;28;19940;-74
2022/10/07 01:03:04;;;;;;;;;;;14.50;99.90;;;;;;1031962;28;19957;-73
2022/10/07 01:03:35;;;;;;;;;;;14.50;99.90;;;;;;1031703;28;19925;-74
2022/10/07 01:04:05;;;;;;;;;;;14.50;99.90;;;;;;1035149;28;19909;-70
2022/10/07 01:04:37;;;;;;;;;;;14.50;99.90;;;;;;1035519;28;19909;-71
2022/10/07 01:05:08;;;;;;;;;;;14.50;99.90;;;;;;1039105;28;19979;-72
2022/10/07 01:05:39;;;;;;;;;;;14.50;99.90;;;;;;1035220;28;19980;-71
2022/10/07 01:06:09;;;;;;;;;;;14.50;99.90;;;;;;1035098;28;19928;-72
2022/10/07 01:06:40;;;;;;;;;;;14.50;99.90;;;;;;1034962;28;19943;-71
2022/10/07 01:07:10;;;;;;;;;;;14.50;99.90;;;;;;1031382;28;20475;-72
2022/10/07 01:07:42;;;;;;;;;;;14.50;99.90;;;;;;1035133;28;20013;-71
2022/10/07 01:08:14;;;;;;;;;;;14.50;99.90;;;;;;1035114;28;19983;-71
2022/10/07 01:08:46;;;;;;;;;;;14.40;99.90;;;;;;1034274;28;19909;-72
2022/10/07 01:09:17;;;;;;;;;;;14.40;99.90;;;;;;1035013;28;20008;-72
2022/10/07 01:09:50;;;;;;;;;;;14.40;99.90;;;;;;1034812;28;19913;-71
2022/10/07 01:10:21;;;;;;;;;;;14.40;99.90;;;;;;1033969;28;20099;-72
2022/10/07 01:10:55;;;;;;;;;;;14.40;99.90;;;;;;1034950;28;19905;-72
2022/10/07 01:11:28;;;;;;;;;;;14.40;99.90;;;;;;1032357;28;19916;-70
2022/10/07 01:12:02;;;;;;;;;;;14.40;99.90;;;;;;1034852;28;19909;-72
2022/10/07 01:12:32;;;;;;;;;;;14.40;99.90;;;;;;1035282;28;19952;-72
2022/10/07 01:13:13;;;;;;;;;;;14.40;99.90;;;;;;1034816;28;19999;-71
2022/10/07 01:13:57;;;;;;;;;;;14.30;99.90;;;;;;1034144;28;20000;-72
2022/10/07 01:14:34;;;;;;;;;;;14.30;99.90;;;;;;1033510;28;20792;-73
2022/10/07 01:15:24;;;;;;;;;;;14.40;99.90;;;;;;1035161;28;20004;-73
2022/10/07 01:16:14;;;;;;;;;;;14.30;99.90;;;;;;1034824;28;19955;-73
2022/10/07 01:16:57;;;;;;;;;;;14.30;99.90;;;;;;1034288;28;19916;-72
2022/10/07 01:17:58;;;;;;;;;;;14.30;99.90;;;;;;1035337;28;19910;-74
2022/10/07 01:18:37;;;;;;;;;;;14.30;99.90;;;;;;1022933;29;19910;-73
2022/10/07 01:19:09;;;;;;;;;;;14.30;99.90;;;;;;1020313;29;20000;-73
2022/10/07 01:19:43;;;;;;;;;;;14.30;99.90;;;;;;1022156;29;19933;-74
2022/10/07 01:20:22;;;;;;;;;;;14.30;99.90;;;;;;1024403;28;19910;-72
2022/10/07 01:21:03;;;;;;;;;;;14.30;99.90;;;;;;1035010;28;19909;-71
2022/10/07 01:21:33;;;;;;;;;;;14.30;99.90;;;;;;1033211;28;20003;-71
2022/10/07 01:22:16;;;;;;;;;;;14.30;99.90;;;;;;1035175;28;19917;-74
2022/10/07 01:23:10;;;;;;;;;;;14.30;99.90;;;;;;1035187;28;19909;-71
2022/10/07 01:23:53;;;;;;;;;;;14.30;99.90;;;;;;1033458;28;20418;-71
2022/10/07 01:24:23;;;;;;;;;;;14.30;99.90;;;;;;1035219;28;19909;-71
2022/10/07 01:25:11;;;;;;;;;;;14.20;99.90;;;;;;1031010;28;19910;-71
2022/10/07 01:25:57;;;;;;;;;;;14.20;99.90;;;;;;1034748;28;20350;-71
2022/10/07 01:26:33;;;;;;;;;;;14.20;99.90;;;;;;1032610;28;19909;-71
2022/10/07 01:27:15;;;;;;;;;;;14.20;99.90;;;;;;1039038;28;19909;-72
2022/10/07 01:27:57;;;;;;;;;;;14.20;99.90;;;;;;1035053;28;20920;-71
2022/10/07 01:28:29;;;;;;;;;;;14.20;99.90;;;;;;1035004;28;19967;-71
2022/10/07 01:29:03;;;;;;;;;;;14.20;99.90;;;;;;1035087;28;20012;-71
2022/10/07 01:29:43;;;;;;;;;;;14.20;99.90;;;;;;1035050;28;19909;-72
2022/10/07 01:30:13;;;;;;;;;;;14.20;99.90;;;;;;1032540;28;19909;-71
2022/10/07 01:30:46;;;;;;;;;;;14.20;99.90;;;;;;1035272;28;19914;-71
2022/10/07 01:31:20;;;;;;;;;;;14.20;99.90;;;;;;1035621;28;20046;-72
2022/10/07 01:31:53;;;;;;;;;;;14.20;99.90;;;;;;1032107;28;20008;-72
2022/10/07 01:32:26;;;;;;;;;;;14.20;99.90;;;;;;1035518;28;19909;-71
2022/10/07 01:32:58;;;;;;;;;;;14.20;99.90;;;;;;1035295;28;19921;-72
2022/10/07 01:33:30;;;;;;;;;;;14.20;99.90;;;;;;1032180;28;19910;-71
2022/10/07 01:34:02;;;;;;;;;;;14.10;99.90;;;;;;1035207;28;19909;-72
2022/10/07 01:34:33;;;;;;;;;;;14.20;99.90;;;;;;1035515;28;20008;-72
2022/10/07 01:35:05;;;;;;;;;;;14.20;99.90;;;;;;1034831;28;19910;-72
2022/10/07 01:35:36;;;;;;;;;;;14.20;99.90;;;;;;1034878;28;19913;-71
2022/10/07 01:36:09;;;;;;;;;;;14.20;99.90;;;;;;1034902;28;19905;-72
2022/10/07 01:36:40;;;;;;;;;;;14.20;99.90;;;;;;1035338;28;20457;-72
2022/10/07 01:37:13;;;;;;;;;;;14.20;99.90;;;;;;1035200;28;20008;-72
2022/10/07 01:37:47;;;;;;;;;;;14.20;99.90;;;;;;1032433;28;19913;-72
2022/10/07 01:38:18;;;;;;;;;;;14.20;99.90;;;;;;1035010;28;19910;-72
2022/10/07 01:38:51;;;;;;;;;;;14.20;99.90;;;;;;1034869;28;20278;-72
2022/10/07 01:39:25;;;;;;;;;;;14.20;99.90;;;;;;1035231;28;20020;-72
2022/10/07 01:39:57;;;;;;;;;;;14.20;99.90;;;;;;1035097;28;19910;-71
2022/10/07 01:40:32;;;;;;;;;;;14.20;99.90;;;;;;1035466;28;19955;-73
2022/10/07 01:41:08;;;;;;;;;;;14.20;99.90;;;;;;1035805;28;20005;-72
2022/10/07 01:41:39;;;;;;;;;;;14.20;99.90;;;;;;1032466;28;20008;-72
2022/10/07 01:42:09;;;;;;;;;;;14.20;99.90;;;;;;1032310;28;19915;-73
2022/10/07 01:42:40;;;;;;;;;;;14.20;99.90;;;;;;1033139;28;20035;-73
2022/10/07 01:43:13;;;;;;;;;;;14.20;99.90;;;;;;1034772;28;19910;-72
2022/10/07 01:43:45;;;;;;;;;;;14.20;99.90;;;;;;1035285;28;20360;-71
2022/10/07 01:44:15;;;;;;;;;;;14.20;99.90;;;;;;1035160;28;19909;-73
2022/10/07 01:44:47;;;;;;;;;;;14.20;99.90;;;;;;1035303;28;19913;-71
2022/10/07 01:45:20;;;;;;;;;;;14.20;99.90;;;;;;1030838;28;19916;-73
2022/10/07 01:45:52;;;;;;;;;;;14.20;99.90;;;;;;1030106;28;19918;-73
2022/10/07 01:46:24;;;;;;;;;;;14.20;99.90;;;;;;1031875;28;20016;-73
2022/10/07 01:46:54;;;;;;;;;;;14.20;99.90;;;;;;1035888;28;19916;-72
2022/10/07 01:47:25;;;;;;;;;;;14.30;99.90;;;;;;1038061;28;19920;-73
2022/10/07 01:47:57;;;;;;;;;;;14.30;99.90;;;;;;1034071;28;20024;-71
2022/10/07 01:48:30;;;;;;;;;;;14.30;99.90;;;;;;1035435;28;19917;-73
2022/10/07 01:49:00;;;;;;;;;;;14.30;99.90;;;;;;1035141;28;20466;-72
2022/10/07 01:49:31;;;;;;;;;;;14.30;99.90;;;;;;1035373;28;20261;-73
2022/10/07 01:50:04;;;;;;;;;;;14.30;99.90;;;;;;1035586;28;19917;-72
2022/10/07 01:50:36;;;;;;;;;;;14.30;99.90;;;;;;1035419;28;20340;-72
2022/10/07 01:51:08;;;;;;;;;;;14.30;99.90;;;;;;1035113;28;19909;-73
2022/10/07 01:51:39;;;;;;;;;;;14.30;99.90;;;;;;1035153;28;19909;-72
2022/10/07 01:52:16;;;;;;;;;;;14.30;99.90;;;;;;1035406;28;19917;-73
2022/10/07 01:52:54;;;;;;;;;;;14.30;99.90;;;;;;1035036;28;20291;-72
2022/10/07 01:53:30;;;;;;;;;;;14.20;99.90;;;;;;1032620;28;19909;-73
2022/10/07 01:54:30;;;;;;;;;;;14.30;99.90;;;;;;1034711;28;19916;-72
2022/10/07 01:55:19;;;;;;;;;;;14.20;99.90;;;;;;1027351;28;19986;-72
2022/10/07 01:56:08;;;;;;;;;;;14.20;99.90;;;;;;1032513;28;19910;-72
2022/10/07 01:56:45;;;;;;;;;;;14.20;99.90;;;;;;1034714;28;19910;-72
2022/10/07 01:57:18;;;;;;;;;;;14.10;99.90;;;;;;1033268;28;19952;-72
2022/10/07 01:57:57;;;;;;;;;;;14.10;99.90;;;;;;1035090;28;19915;-71
2022/10/07 01:58:53;;;;;;;;;;;14.10;99.90;;;;;;1031748;28;19952;-71
2022/10/07 01:59:42;;;;;;;;;;;14.10;99.90;;;;;;1033927;28;19969;-72
2022/10/07 02:00:13;;;;;;;;;;;14.10;99.90;;;;;;1033699;28;19909;-72
2022/10/07 02:00:46;;;;;;;;;;;14.10;99.90;;;;;;1035465;28;20003;-72
2022/10/07 02:01:21;;;;;;;;;;;14.10;99.90;;;;;;1033148;28;19918;-72
2022/10/07 02:01:55;;;;;;;;;;;14.10;99.90;;;;;;1034660;28;19932;-72
2022/10/07 02:02:27;;;;;;;;;;;14.10;99.90;;;;;;1035216;28;20008;-71
2022/10/07 02:03:03;;;;;;;;;;;14.10;99.90;;;;;;1035111;28;20305;-71
2022/10/07 02:03:41;;;;;;;;;;;14.10;99.90;;;;;;1035287;28;19909;-72
2022/10/07 02:04:26;;;;;;;;;;;14.10;99.90;;;;;;1032087;28;19909;-72
2022/10/07 02:05:16;;;;;;;;;;;14.10;99.90;;;;;;1034329;28;19920;-72
2022/10/07 02:05:46;;;;;;;;;;;14.10;99.90;;;;;;1034990;28;20593;-71
2022/10/07 02:06:19;;;;;;;;;;;14.10;99.90;;;;;;1034838;28;20326;-72
2022/10/07 02:07:09;;;;;;;;;;;14.10;99.90;;;;;;1034978;28;19979;-71
2022/10/07 02:07:54;;;;;;;;;;;14.10;99.90;;;;;;1033182;28;20516;-72
2022/10/07 02:08:34;;;;;;;;;;;14.00;99.90;;;;;;1035079;28;20013;-72
2022/10/07 02:09:10;;;;;;;;;;;14.00;99.90;;;;;;1035194;28;20000;-72
2022/10/07 02:09:44;;;;;;;;;;;14.00;99.90;;;;;;1033614;28;19906;-72
2022/10/07 02:10:19;;;;;;;;;;;14.00;99.90;;;;;;1034989;28;20372;-71
2022/10/07 02:11:02;;;;;;;;;;;14.00;99.90;;;;;;1035500;28;19913;-73
2022/10/07 02:11:37;;;;;;;;;;;14.10;99.90;;;;;;1035425;28;19941;-71
2022/10/07 02:12:27;;;;;;;;;;;14.00;99.90;;;;;;1032613;28;19906;-71
2022/10/07 02:13:16;;;;;;;;;;;14.10;99.90;;;;;;1036043;28;19912;-72
2022/10/07 02:13:50;;;;;;;;;;;14.00;99.90;;;;;;1035612;28;19910;-71
2022/10/07 02:14:23;;;;;;;;;;;14.00;99.90;;;;;;1035874;28;20020;-72
2022/10/07 02:14:58;;;;;;;;;;;14.00;99.90;;;;;;1035439;28;19905;-73
2022/10/07 02:15:34;;;;;;;;;;;14.10;99.90;;;;;;1033036;28;19913;-71
2022/10/07 02:16:25;;;;;;;;;;;14.00;99.90;;;;;;1036291;28;19905;-72
2022/10/07 02:17:00;;;;;;;;;;;14.00;99.90;;;;;;1028499;28;20020;-72
2022/10/07 02:17:33;;;;;;;;;;;14.00;99.90;;;;;;1035758;28;19955;-72
2022/10/07 02:18:06;;;;;;;;;;;14.00;99.90;;;;;;1035275;28;20539;-72
2022/10/07 02:18:38;;;;;;;;;;;14.00;99.90;;;;;;1036287;28;19992;-71
2022/10/07 02:19:12;;;;;;;;;;;14.00;99.90;;;;;;1035373;28;20047;-71
2022/10/07 02:19:46;;;;;;;;;;;14.00;99.90;;;;;;1032225;28;19956;-72
2022/10/07 02:20:17;;;;;;;;;;;14.00;99.90;;;;;;1034669;28;20526;-72
2022/10/07 02:20:50;;;;;;;;;;;14.00;99.90;;;;;;1033064;28;19913;-72
2022/10/07 02:21:23;;;;;;;;;;;14.00;99.90;;;;;;1036386;28;19916;-72
2022/10/07 02:21:56;;;;;;;;;;;14.00;99.90;;;;;;1035501;28;20016;-72
2022/10/07 02:22:27;;;;;;;;;;;14.00;99.90;;;;;;1035601;28;19957;-72
2022/10/07 02:22:59;;;;;;;;;;;14.00;99.90;;;;;;1035324;28;19901;-72
2022/10/07 02:23:33;;;;;;;;;;;14.00;99.90;;;;;;1035589;28;19905;-73
2022/10/07 02:24:04;;;;;;;;;;;14.00;99.90;;;;;;1035758;28;19908;-71
2022/10/07 02:24:36;;;;;;;;;;;14.00;99.90;;;;;;1036297;28;20340;-72
2022/10/07 02:25:08;;;;;;;;;;;14.00;99.90;;;;;;1035207;28;19944;-72
2022/10/07 02:25:43;;;;;;;;;;;14.00;99.90;;;;;;1031517;28;20020;-72
2022/10/07 02:26:14;;;;;;;;;;;14.00;99.90;;;;;;1031526;28;20504;-71
2022/10/07 02:26:46;;;;;;;;;;;14.00;99.90;;;;;;1032710;28;20397;-72
2022/10/07 02:27:18;;;;;;;;;;;14.00;99.90;;;;;;1035817;28;20462;-72
2022/10/07 02:27:51;;;;;;;;;;;14.00;99.90;;;;;;1035655;28;19916;-72
2022/10/07 02:28:23;;;;;;;;;;;14.00;99.90;;;;;;1034713;28;20427;-74
2022/10/07 02:28:55;;;;;;;;;;;14.00;99.90;;;;;;1035689;28;20551;-72
2022/10/07 02:29:29;;;;;;;;;;;14.10;99.90;;;;;;1035718;28;19914;-71
2022/10/07 02:30:06;;;;;;;;;;;14.10;99.90;;;;;;1035746;28;19909;-71
2022/10/07 02:30:37;;;;;;;;;;;14.10;99.90;;;;;;1032152;28;20000;-72
2022/10/07 02:31:09;;;;;;;;;;;14.10;99.90;;;;;;1034756;28;20006;-72
2022/10/07 02:31:41;;;;;;;;;;;14.10;99.90;;;;;;1035509;28;19980;-72
2022/10/07 02:32:17;;;;;;;;;;;14.10;99.90;;;;;;1035461;28;20565;-72
2022/10/07 02:32:52;;;;;;;;;;;14.10;99.90;;;;;;1035555;28;19960;-71
2022/10/07 02:33:25;;;;;;;;;;;14.10;99.90;;;;;;1035151;28;19909;-71
2022/10/07 02:33:56;;;;;;;;;;;14.10;99.90;;;;;;1035480;28;19909;-72
2022/10/07 02:34:28;;;;;;;;;;;14.10;99.90;;;;;;1035833;28;19917;-72
2022/10/07 02:35:02;;;;;;;;;;;14.10;99.90;;;;;;1035527;28;19915;-71
2022/10/07 02:35:37;;;;;;;;;;;14.10;99.90;;;;;;1035784;28;19909;-72
2022/10/07 02:36:12;;;;;;;;;;;14.10;99.90;;;;;;1035742;28;19913;-72
2022/10/07 02:36:45;;;;;;;;;;;14.10;99.90;;;;;;1035889;28;19921;-72
2022/10/07 02:37:23;;;;;;;;;;;14.10;99.90;;;;;;1035811;28;20023;-72
2022/10/07 02:37:56;;;;;;;;;;;14.00;99.90;;;;;;1035321;28;19909;-73
2022/10/07 02:38:28;;;;;;;;;;;14.00;99.90;;;;;;1035646;28;19920;-72
2022/10/07 02:38:59;;;;;;;;;;;14.00;99.90;;;;;;1035662;28;19909;-71
2022/10/07 02:39:30;;;;;;;;;;;14.00;99.90;;;;;;1035580;28;20287;-72
2022/10/07 02:40:01;;;;;;;;;;;14.00;99.90;;;;;;1035468;28;20533;-72
2022/10/07 02:40:35;;;;;;;;;;;14.00;99.90;;;;;;1035722;28;19939;-72
2022/10/07 02:41:29;;;;;;;;;;;14.00;99.90;;;;;;1035817;28;19916;-72
2022/10/07 02:42:07;;;;;;;;;;;14.00;99.90;;;;;;1035294;28;20500;-72
2022/10/07 02:42:40;;;;;;;;;;;14.00;99.90;;;;;;1036168;28;20061;-72
2022/10/07 02:43:25;;;;;;;;;;;14.00;99.90;;;;;;1035704;28;19920;-72
2022/10/07 02:44:16;;;;;;;;;;;14.00;99.90;;;;;;1033907;28;19984;-71
2022/10/07 02:44:50;;;;;;;;;;;14.00;99.90;;;;;;1037277;28;20430;-71
2022/10/07 02:45:28;;;;;;;;;;;14.00;99.90;;;;;;1039431;28;19915;-71
2022/10/07 02:46:08;;;;;;;;;;;14.00;99.90;;;;;;1035477;28;19909;-72
2022/10/07 02:46:44;;;;;;;;;;;13.90;99.90;;;;;;1035652;28;20355;-71
2022/10/07 02:47:20;;;;;;;;;;;13.90;99.90;;;;;;1035403;28;19909;-71
2022/10/07 02:48:09;;;;;;;;;;;13.90;99.90;;;;;;1035857;28;19909;-71
2022/10/07 02:48:44;;;;;;;;;;;13.90;99.90;;;;;;1035223;28;19917;-72
2022/10/07 02:49:17;;;;;;;;;;;13.90;99.90;;;;;;1031859;28;19910;-70
2022/10/07 02:49:49;;;;;;;;;;;13.90;99.90;;;;;;1033760;28;19913;-72
2022/10/07 02:50:22;;;;;;;;;;;13.90;99.90;;;;;;1035012;28;19981;-70
2022/10/07 02:50:55;;;;;;;;;;;13.90;99.90;;;;;;1035147;28;19906;-71
2022/10/07 02:51:27;;;;;;;;;;;13.90;99.90;;;;;;1035707;28;19910;-70
2022/10/07 02:52:09;;;;;;;;;;;13.90;99.90;;;;;;1035992;28;19905;-72
2022/10/07 02:52:41;;;;;;;;;;;13.90;99.90;;;;;;1036066;28;19905;-71
2022/10/07 02:53:12;;;;;;;;;;;13.90;99.90;;;;;;1036211;28;19905;-70
2022/10/07 02:53:44;;;;;;;;;;;13.90;99.90;;;;;;1035815;28;19905;-71
2022/10/07 02:54:16;;;;;;;;;;;13.80;99.90;;;;;;1035499;28;19931;-71
2022/10/07 02:55:05;;;;;;;;;;;13.90;99.90;;;;;;1035795;28;19905;-74
2022/10/07 02:55:36;;;;;;;;;;;13.80;99.90;;;;;;1033433;28;19940;-72
2022/10/07 02:56:07;;;;;;;;;;;13.80;99.90;;;;;;1034474;28;20455;-72
2022/10/07 02:56:39;;;;;;;;;;;13.80;99.90;;;;;;1035743;28;19905;-71
2022/10/07 02:57:11;;;;;;;;;;;13.80;99.90;;;;;;1035507;28;20008;-72
2022/10/07 02:57:45;;;;;;;;;;;13.80;99.90;;;;;;1035637;28;19948;-72
2022/10/07 02:58:16;;;;;;;;;;;13.80;99.90;;;;;;1035603;28;19913;-72
2022/10/07 02:58:47;;;;;;;;;;;13.80;99.90;;;;;;1035480;28;19901;-71
2022/10/07 02:59:18;;;;;;;;;;;13.80;99.90;;;;;;1035762;28;19906;-72
2022/10/07 02:59:50;;;;;;;;;;;13.80;99.90;;;;;;1035545;28;19933;-72
2022/10/07 03:00:20;;;;;;;;;;;13.80;99.90;;;;;;1035661;28;19911;-73
2022/10/07 03:00:54;;;;;;;;;;;13.80;99.90;;;;;;1035782;28;19912;-72
2022/10/07 03:01:27;;;;;;;;;;;13.80;99.90;;;;;;1036387;28;19955;-72
2022/10/07 03:01:59;;;;;;;;;;;13.80;99.90;;;;;;1035659;28;20332;-72
2022/10/07 03:02:33;;;;;;;;;;;13.80;99.90;;;;;;1036512;28;20295;-72
2022/10/07 03:03:04;;;;;;;;;;;13.80;99.90;;;;;;1035318;28;19906;-72
2022/10/07 03:03:34;;;;;;;;;;;13.80;99.90;;;;;;1035534;28;19942;-72
2022/10/07 03:04:05;;;;;;;;;;;13.80;99.90;;;;;;1031533;28;20127;-72
2022/10/07 03:04:36;;;;;;;;;;;13.80;99.90;;;;;;1031410;28;20509;-71
2022/10/07 03:05:08;;;;;;;;;;;13.80;99.90;;;;;;1031821;28;19906;-71
2022/10/07 03:05:38;;;;;;;;;;;13.80;99.90;;;;;;1035821;28;19912;-72
2022/10/07 03:06:10;;;;;;;;;;;13.80;99.90;;;;;;1035631;28;19913;-71
2022/10/07 03:06:41;;;;;;;;;;;13.80;99.90;;;;;;1035687;28;19909;-72
2022/10/07 03:07:12;;;;;;;;;;;13.80;99.90;;;;;;1036978;28;19906;-72
2022/10/07 03:07:43;;;;;;;;;;;13.80;99.90;;;;;;1037739;28;19929;-72
2022/10/07 03:08:13;;;;;;;;;;;13.80;99.90;;;;;;1032075;28;20300;-71
2022/10/07 03:08:46;;;;;;;;;;;13.80;99.90;;;;;;1035484;28;19905;-72
2022/10/07 03:09:17;;;;;;;;;;;13.80;99.90;;;;;;1035453;28;20008;-71
2022/10/07 03:09:47;;;;;;;;;;;13.80;99.90;;;;;;1035434;28;19948;-72
2022/10/07 03:10:18;;;;;;;;;;;13.80;99.90;;;;;;1035925;28;20426;-73
2022/10/07 03:10:49;;;;;;;;;;;13.80;99.90;;;;;;1035299;28;19916;-71
2022/10/07 03:11:19;;;;;;;;;;;13.80;99.90;;;;;;1035658;28;19964;-72
2022/10/07 03:11:49;;;;;;;;;;;13.90;99.90;;;;;;1031401;28;19909;-72
2022/10/07 03:12:20;;;;;;;;;;;13.90;99.90;;;;;;1034311;28;19909;-72
2022/10/07 03:12:51;;;;;;;;;;;13.90;99.90;;;;;;1037563;28;20345;-72
2022/10/07 03:13:23;;;;;;;;;;;13.90;99.90;;;;;;1035534;28;19996;-72
2022/10/07 03:13:54;;;;;;;;;;;13.90;99.90;;;;;;1035635;28;19909;-73
2022/10/07 03:14:24;;;;;;;;;;;13.90;99.90;;;;;;1035835;28;19909;-72
2022/10/07 03:14:55;;;;;;;;;;;13.90;99.90;;;;;;1035304;28;19960;-72
2022/10/07 03:15:26;;;;;;;;;;;13.90;99.90;;;;;;1032645;28;19940;-72
2022/10/07 03:15:56;;;;;;;;;;;13.90;99.90;;;;;;1035384;28;20032;-72